sensor_id;sensor_type;location;lat;lon;timestamp;pressure;altitude;pressure_sealevel;temperature;humidity
18858;BME280;9558;50.178;8.370;2023-06-24T00:00:43;99095.41;;;14.50;100.00
18858;BME280;9558;50.178;8.370;2023-06-24T00:03:29;99099.34;;;14.46;100.00
18858;BME280;9558;50.178;8.370;2023-06-24T00:06:17;99102.97;;;14.45;100.00
18858;BME280;9558;50.178;8.370;2023-06-24T00:09:04;99100.06;;;14.40;100.00
18858;BME280;9558;50.178;8.370;2023-06-24T00:11:53;99102.06;;;14.38;100.00
18858;BME280;9558;50.178;8.370;2023-06-24T00:14:41;99100.78;;;14.33;100.00
18858;BME280;9558;50.178;8.370;2023-06-24T00:17:28;99106.00;;;14.33;100.00
18858;BME280;9558;50.178;8.370;2023-06-24T00:20:15;99111.56;;;14.30;100.00
18858;BME280;9558;50.178;8.370;2023-06-24T00:23:03;99109.47;;;14.26;100.00
18858;BME280;9558;50.178;8.370;2023-06-24T00:25:50;99112.25;;;14.24;100.00
18858;BME280;9558;50.178;8.370;2023-06-24T00:28:37;99113.25;;;14.23;100.00
18858;BME280;9558;50.178;8.370;2023-06-24T00:31:25;99111.97;;;14.19;100.00
18858;BME280;9558;50.178;8.370;2023-06-24T00:34:12;99109.69;;;14.16;100.00
18858;BME280;9558;50.178;8.370;2023-06-24T00:36:58;99105.84;;;14.12;100.00
18858;BME280;9558;50.178;8.370;2023-06-24T00:39:45;99105.56;;;14.07;100.00
18858;BME280;9558;50.178;8.370;2023-06-24T00:42:32;99105.91;;;14.04;100.00
18858;BME280;9558;50.178;8.370;2023-06-24T00:45:19;99111.09;;;14.04;100.00
18858;BME280;9558;50.178;8.370;2023-06-24T00:48:08;99110.81;;;13.98;100.00
18858;BME280;9558;50.178;8.370;2023-06-24T00:50:55;99104.34;;;13.94;100.00
18858;BME280;9558;50.178;8.370;2023-06-24T00:53:44;99110.06;;;13.90;100.00
18858;BME280;9558;50.178;8.370;2023-06-24T00:56:33;99109.25;;;13.89;100.00
18858;BME280;9558;50.178;8.370;2023-06-24T00:59:23;99104.41;;;13.86;100.00
18858;BME280;9558;50.178;8.370;2023-06-24T01:02:12;99108.59;;;13.87;100.00
18858;BME280;9558;50.178;8.370;2023-06-24T01:05:00;99107.34;;;13.83;100.00
18858;BME280;9558;50.178;8.370;2023-06-24T01:07:47;99108.03;;;13.77;100.00
18858;BME280;9558;50.178;8.370;2023-06-24T01:10:41;99107.41;;;13.75;100.00
18858;BME280;9558;50.178;8.370;2023-06-24T01:13:28;99098.94;;;13.73;100.00
18858;BME280;9558;50.178;8.370;2023-06-24T01:16:22;99106.94;;;13.71;100.00
18858;BME280;9558;50.178;8.370;2023-06-24T01:19:31;99103.22;;;13.65;100.00
18858;BME280;9558;50.178;8.370;2023-06-24T01:22:59;99098.38;;;13.62;100.00
18858;BME280;9558;50.178;8.370;2023-06-24T01:26:03;99105.38;;;13.62;100.00
18858;BME280;9558;50.178;8.370;2023-06-24T01:29:15;99110.75;;;13.60;100.00
18858;BME280;9558;50.178;8.370;2023-06-24T01:32:11;99108.47;;;13.57;100.00
18858;BME280;9558;50.178;8.370;2023-06-24T01:35:06;99111.41;;;13.54;100.00
18858;BME280;9558;50.178;8.370;2023-06-24T01:37:56;99103.97;;;13.51;100.00
18858;BME280;9558;50.178;8.370;2023-06-24T01:40:47;99110.13;;;13.50;100.00
18858;BME280;9558;50.178;8.370;2023-06-24T01:43:35;99112.91;;;13.48;100.00
18858;BME280;9558;50.178;8.370;2023-06-24T01:46:25;99116.03;;;13.44;100.00
18858;BME280;9558;50.178;8.370;2023-06-24T01:49:14;99109.19;;;13.43;100.00
18858;BME280;9558;50.178;8.370;2023-06-24T01:52:03;99110.50;;;13.39;100.00
18858;BME280;9558;50.178;8.370;2023-06-24T01:54:52;99113.44;;;13.36;100.00
18858;BME280;9558;50.178;8.370;2023-06-24T01:57:40;99112.78;;;13.34;100.00
18858;BME280;9558;50.178;8.370;2023-06-24T02:00:29;99119.75;;;13.33;100.00
18858;BME280;9558;50.178;8.370;2023-06-24T02:03:17;99112.13;;;13.31;100.00
18858;BME280;9558;50.178;8.370;2023-06-24T02:06:07;99115.91;;;13.29;100.00
18858;BME280;9558;50.178;8.370;2023-06-24T02:08:57;99112.47;;;13.28;100.00
18858;BME280;9558;50.178;8.370;2023-06-24T02:11:45;99108.25;;;13.27;100.00
18858;BME280;9558;50.178;8.370;2023-06-24T02:14:33;99112.81;;;13.25;100.00
18858;BME280;9558;50.178;8.370;2023-06-24T02:17:24;99108.75;;;13.23;100.00
18858;BME280;9558;50.178;8.370;2023-06-24T02:20:12;99105.38;;;13.22;100.00
18858;BME280;9558;50.178;8.370;2023-06-24T02:23:02;99110.91;;;13.19;100.00
18858;BME280;9558;50.178;8.370;2023-06-24T02:25:50;99109.28;;;13.18;100.00
18858;BME280;9558;50.178;8.370;2023-06-24T02:28:38;99112.03;;;13.17;100.00
18858;BME280;9558;50.178;8.370;2023-06-24T02:31:25;99107.81;;;13.16;100.00
18858;BME280;9558;50.178;8.370;2023-06-24T02:34:12;99104.41;;;13.15;100.00
18858;BME280;9558;50.178;8.370;2023-06-24T02:36:58;99110.59;;;13.14;100.00
18858;BME280;9558;50.178;8.370;2023-06-24T02:39:46;99108.50;;;13.09;100.00
18858;BME280;9558;50.178;8.370;2023-06-24T02:42:33;99106.25;;;13.06;100.00
18858;BME280;9558;50.178;8.370;2023-06-24T02:45:20;99103.97;;;13.03;100.00
18858;BME280;9558;50.178;8.370;2023-06-24T02:48:08;99107.56;;;13.02;100.00
18858;BME280;9558;50.178;8.370;2023-06-24T02:50:57;99091.13;;;13.02;100.00
18858;BME280;9558;50.178;8.370;2023-06-24T02:53:45;99098.63;;;12.96;100.00
18858;BME280;9558;50.178;8.370;2023-06-24T02:56:35;99097.97;;;12.94;100.00
18858;BME280;9558;50.178;8.370;2023-06-24T02:59:21;99095.38;;;12.94;100.00
18858;BME280;9558;50.178;8.370;2023-06-24T03:02:08;99095.06;;;12.98;100.00
18858;BME280;9558;50.178;8.370;2023-06-24T03:04:56;99100.56;;;12.94;100.00
18858;BME280;9558;50.178;8.370;2023-06-24T03:07:44;99098.97;;;12.93;100.00
18858;BME280;9558;50.178;8.370;2023-06-24T03:10:31;99100.91;;;12.91;100.00
18858;BME280;9558;50.178;8.370;2023-06-24T03:13:19;99104.50;;;12.90;100.00
18858;BME280;9558;50.178;8.370;2023-06-24T03:16:06;99104.50;;;12.90;100.00
18858;BME280;9558;50.178;8.370;2023-06-24T03:18:57;99108.25;;;12.88;100.00
18858;BME280;9558;50.178;8.370;2023-06-24T03:21:44;99103.22;;;12.86;100.00
18858;BME280;9558;50.178;8.370;2023-06-24T03:24:31;99098.03;;;12.86;100.00
18858;BME280;9558;50.178;8.370;2023-06-24T03:27:18;99098.03;;;12.86;100.00
18858;BME280;9558;50.178;8.370;2023-06-24T03:30:07;99107.41;;;12.87;100.00
18858;BME280;9558;50.178;8.370;2023-06-24T03:32:54;99113.63;;;12.86;100.00
18858;BME280;9558;50.178;8.370;2023-06-24T03:35:41;99103.38;;;12.85;100.00
18858;BME280;9558;50.178;8.370;2023-06-24T03:38:27;99115.22;;;12.87;100.00
18858;BME280;9558;50.178;8.370;2023-06-24T03:41:14;99109.03;;;12.88;100.00
18858;BME280;9558;50.178;8.370;2023-06-24T03:44:01;99106.13;;;12.91;100.00
18858;BME280;9558;50.178;8.370;2023-06-24T03:46:49;99109.72;;;12.90;100.00
18858;BME280;9558;50.178;8.370;2023-06-24T03:49:36;99112.94;;;12.92;100.00
18858;BME280;9558;50.178;8.370;2023-06-24T03:52:23;99114.56;;;12.93;100.00
18858;BME280;9558;50.178;8.370;2023-06-24T03:55:10;99116.34;;;12.93;100.00
18858;BME280;9558;50.178;8.370;2023-06-24T03:57:56;99117.16;;;12.93;100.00
18858;BME280;9558;50.178;8.370;2023-06-24T04:00:43;99112.59;;;12.95;100.00
18858;BME280;9558;50.178;8.370;2023-06-24T04:03:32;99118.28;;;12.99;100.00
18858;BME280;9558;50.178;8.370;2023-06-24T04:06:19;99113.88;;;13.00;100.00
18858;BME280;9558;50.178;8.370;2023-06-24T04:09:05;99115.97;;;13.04;100.00
18858;BME280;9558;50.178;8.370;2023-06-24T04:11:54;99124.25;;;13.08;100.00
18858;BME280;9558;50.178;8.370;2023-06-24T04:14:40;99126.69;;;13.09;100.00
18858;BME280;9558;50.178;8.370;2023-06-24T04:17:27;99128.78;;;13.14;100.00
18858;BME280;9558;50.178;8.370;2023-06-24T04:20:15;99124.25;;;13.16;100.00
18858;BME280;9558;50.178;8.370;2023-06-24T04:23:03;99128.75;;;13.22;100.00
18858;BME280;9558;50.178;8.370;2023-06-24T04:25:50;99135.88;;;13.28;100.00
18858;BME280;9558;50.178;8.370;2023-06-24T04:28:37;99129.69;;;13.29;100.00
18858;BME280;9558;50.178;8.370;2023-06-24T04:31:24;99131.78;;;13.34;100.00
18858;BME280;9558;50.178;8.370;2023-06-24T04:34:11;99129.88;;;13.36;100.00
18858;BME280;9558;50.178;8.370;2023-06-24T04:36:59;99132.94;;;13.40;100.00
18858;BME280;9558;50.178;8.370;2023-06-24T04:39:46;99125.44;;;13.45;100.00
18858;BME280;9558;50.178;8.370;2023-06-24T04:42:33;99132.56;;;13.51;100.00
18858;BME280;9558;50.178;8.370;2023-06-24T04:45:19;99130.44;;;13.55;100.00
18858;BME280;9558;50.178;8.370;2023-06-24T04:48:06;99135.31;;;13.58;100.00
18858;BME280;9558;50.178;8.370;2023-06-24T04:50:53;99130.56;;;13.61;100.00
18858;BME280;9558;50.178;8.370;2023-06-24T04:53:41;99138.50;;;13.68;100.00
18858;BME280;9558;50.178;8.370;2023-06-24T04:56:29;99135.38;;;13.73;100.00
18858;BME280;9558;50.178;8.370;2023-06-24T04:59:16;99146.72;;;13.80;100.00
18858;BME280;9558;50.178;8.370;2023-06-24T05:02:03;99141.63;;;13.87;100.00
18858;BME280;9558;50.178;8.370;2023-06-24T05:04:51;99151.34;;;13.93;100.00
18858;BME280;9558;50.178;8.370;2023-06-24T05:07:38;99146.91;;;14.02;100.00
18858;BME280;9558;50.178;8.370;2023-06-24T05:10:27;99151.06;;;14.11;100.00
18858;BME280;9558;50.178;8.370;2023-06-24T05:13:13;99157.22;;;14.18;100.00
18858;BME280;9558;50.178;8.370;2023-06-24T05:16:00;99159.28;;;14.23;100.00
18858;BME280;9558;50.178;8.370;2023-06-24T05:18:47;99155.97;;;14.29;100.00
18858;BME280;9558;50.178;8.370;2023-06-24T05:21:34;99151.53;;;14.38;100.00
18858;BME280;9558;50.178;8.370;2023-06-24T05:24:21;99155.06;;;14.45;100.00
18858;BME280;9558;50.178;8.370;2023-06-24T05:27:09;99155.63;;;14.55;100.00
18858;BME280;9558;50.178;8.370;2023-06-24T05:29:56;99156.56;;;14.62;100.00
18858;BME280;9558;50.178;8.370;2023-06-24T05:32:43;99163.28;;;14.72;100.00
18858;BME280;9558;50.178;8.370;2023-06-24T05:35:30;99160.97;;;14.77;100.00
18858;BME280;9558;50.178;8.370;2023-06-24T05:38:16;99166.31;;;14.83;100.00
18858;BME280;9558;50.178;8.370;2023-06-24T05:41:03;99170.44;;;14.93;100.00
18858;BME280;9558;50.178;8.370;2023-06-24T05:44:01;99166.59;;;15.03;100.00
18858;BME280;9558;50.178;8.370;2023-06-24T05:46:48;99173.31;;;15.13;100.00
18858;BME280;9558;50.178;8.370;2023-06-24T05:49:34;99176.63;;;15.21;100.00
18858;BME280;9558;50.178;8.370;2023-06-24T05:52:21;99178.97;;;15.31;100.00
18858;BME280;9558;50.178;8.370;2023-06-24T05:55:08;99168.09;;;15.43;100.00
18858;BME280;9558;50.178;8.370;2023-06-24T05:57:55;99171.03;;;15.54;100.00
18858;BME280;9558;50.178;8.370;2023-06-24T06:00:43;99169.41;;;15.68;100.00
18858;BME280;9558;50.178;8.370;2023-06-24T06:03:31;99166.34;;;15.80;100.00
18858;BME280;9558;50.178;8.370;2023-06-24T06:06:17;99165.50;;;15.94;100.00
18858;BME280;9558;50.178;8.370;2023-06-24T06:09:05;99166.84;;;16.12;100.00
18858;BME280;9558;50.178;8.370;2023-06-24T06:11:51;99167.03;;;16.32;100.00
18858;BME280;9558;50.178;8.370;2023-06-24T06:14:38;99161.84;;;16.60;100.00
18858;BME280;9558;50.178;8.370;2023-06-24T06:17:26;99162.34;;;16.99;100.00
18858;BME280;9558;50.178;8.370;2023-06-24T06:20:13;99168.63;;;17.53;100.00
18858;BME280;9558;50.178;8.370;2023-06-24T06:23:00;99168.44;;;18.23;100.00
18858;BME280;9558;50.178;8.370;2023-06-24T06:25:47;99171.66;;;18.92;100.00
18858;BME280;9558;50.178;8.370;2023-06-24T06:28:33;99163.75;;;19.71;99.78
18858;BME280;9558;50.178;8.370;2023-06-24T06:31:20;99168.84;;;20.54;94.76
18858;BME280;9558;50.178;8.370;2023-06-24T06:34:09;99163.72;;;21.40;92.41
18858;BME280;9558;50.178;8.370;2023-06-24T06:36:56;99171.94;;;22.23;89.42
18858;BME280;9558;50.178;8.370;2023-06-24T06:39:43;99178.09;;;23.07;85.99
18858;BME280;9558;50.178;8.370;2023-06-24T06:42:30;99183.50;;;23.81;80.47
18858;BME280;9558;50.178;8.370;2023-06-24T06:45:16;99178.09;;;24.51;75.76
18858;BME280;9558;50.178;8.370;2023-06-24T06:48:03;99179.56;;;25.20;72.47
18858;BME280;9558;50.178;8.370;2023-06-24T06:50:54;99178.72;;;25.86;70.73
18858;BME280;9558;50.178;8.370;2023-06-24T06:53:40;99177.91;;;26.45;68.23
18858;BME280;9558;50.178;8.370;2023-06-24T06:56:28;99179.06;;;27.02;65.71
18858;BME280;9558;50.178;8.370;2023-06-24T06:59:14;99172.34;;;27.53;63.98
18858;BME280;9558;50.178;8.370;2023-06-24T07:02:02;99179.31;;;27.95;62.13
18858;BME280;9558;50.178;8.370;2023-06-24T07:04:48;99191.06;;;28.25;59.72
18858;BME280;9558;50.178;8.370;2023-06-24T07:07:38;99171.88;;;28.49;57.75
18858;BME280;9558;50.178;8.370;2023-06-24T07:10:24;99179.84;;;28.74;53.92
18858;BME280;9558;50.178;8.370;2023-06-24T07:13:11;99179.78;;;28.95;51.94
18858;BME280;9558;50.178;8.370;2023-06-24T07:15:58;99179.19;;;29.13;50.90
18858;BME280;9558;50.178;8.370;2023-06-24T07:18:45;99176.97;;;29.41;49.31
18858;BME280;9558;50.178;8.370;2023-06-24T07:21:31;99179.22;;;29.63;48.24
18858;BME280;9558;50.178;8.370;2023-06-24T07:24:20;99172.97;;;29.84;47.44
18858;BME280;9558;50.178;8.370;2023-06-24T07:27:06;99170.47;;;30.03;47.34
18858;BME280;9558;50.178;8.370;2023-06-24T07:29:53;99174.22;;;30.31;46.40
18858;BME280;9558;50.178;8.370;2023-06-24T07:32:40;99176.16;;;30.55;44.73
18858;BME280;9558;50.178;8.370;2023-06-24T07:35:27;99172.63;;;30.83;44.80
18858;BME280;9558;50.178;8.370;2023-06-24T07:38:13;99177.22;;;31.07;44.17
18858;BME280;9558;50.178;8.370;2023-06-24T07:41:01;99180.63;;;31.32;44.27
18858;BME280;9558;50.178;8.370;2023-06-24T07:43:48;99187.28;;;31.53;42.90
18858;BME280;9558;50.178;8.370;2023-06-24T07:46:35;99189.56;;;31.84;42.01
18858;BME280;9558;50.178;8.370;2023-06-24T07:49:22;99180.47;;;32.18;41.84
18858;BME280;9558;50.178;8.370;2023-06-24T07:52:08;99183.72;;;32.48;40.33
18858;BME280;9558;50.178;8.370;2023-06-24T07:54:55;99172.03;;;32.86;39.37
18858;BME280;9558;50.178;8.370;2023-06-24T07:57:45;99186.59;;;33.21;38.25
18858;BME280;9558;50.178;8.370;2023-06-24T08:00:33;99182.38;;;33.57;37.88
18858;BME280;9558;50.178;8.370;2023-06-24T08:03:20;99176.50;;;33.91;37.53
18858;BME280;9558;50.178;8.370;2023-06-24T08:06:07;99166.63;;;34.32;35.78
18858;BME280;9558;50.178;8.370;2023-06-24T08:08:53;99180.34;;;34.62;35.30
18858;BME280;9558;50.178;8.370;2023-06-24T08:11:40;99178.88;;;34.87;34.54
18858;BME280;9558;50.178;8.370;2023-06-24T08:14:28;99174.00;;;35.07;32.52
18858;BME280;9558;50.178;8.370;2023-06-24T08:17:15;99180.41;;;35.46;34.25
18858;BME280;9558;50.178;8.370;2023-06-24T08:20:02;99179.63;;;35.72;33.08
18858;BME280;9558;50.178;8.370;2023-06-24T08:22:49;99182.28;;;35.98;32.55
18858;BME280;9558;50.178;8.370;2023-06-24T08:25:36;99183.06;;;36.16;33.11
18858;BME280;9558;50.178;8.370;2023-06-24T08:28:23;99177.91;;;36.41;31.48
18858;BME280;9558;50.178;8.370;2023-06-24T08:31:11;99179.44;;;36.59;30.83
18858;BME280;9558;50.178;8.370;2023-06-24T08:33:59;99175.56;;;36.78;30.77
18858;BME280;9558;50.178;8.370;2023-06-24T08:36:47;99183.97;;;37.06;31.22
18858;BME280;9558;50.178;8.370;2023-06-24T08:39:34;99179.72;;;37.26;30.51
18858;BME280;9558;50.178;8.370;2023-06-24T08:42:22;99175.34;;;37.55;30.33
18858;BME280;9558;50.178;8.370;2023-06-24T08:45:10;99174.31;;;37.68;27.76
18858;BME280;9558;50.178;8.370;2023-06-24T08:47:58;99178.31;;;37.83;29.14
18858;BME280;9558;50.178;8.370;2023-06-24T08:50:50;99181.41;;;37.94;28.37
18858;BME280;9558;50.178;8.370;2023-06-24T08:53:38;99177.56;;;37.95;28.62
18858;BME280;9558;50.178;8.370;2023-06-24T08:56:28;99178.94;;;38.01;28.75
18858;BME280;9558;50.178;8.370;2023-06-24T08:59:17;99174.09;;;38.07;28.42
18858;BME280;9558;50.178;8.370;2023-06-24T09:02:05;99177.38;;;38.13;29.14
18858;BME280;9558;50.178;8.370;2023-06-24T09:04:53;99171.56;;;38.23;28.47
18858;BME280;9558;50.178;8.370;2023-06-24T09:07:40;99177.78;;;38.36;28.38
18858;BME280;9558;50.178;8.370;2023-06-24T09:10:31;99168.22;;;38.38;27.01
18858;BME280;9558;50.178;8.370;2023-06-24T09:13:18;99162.78;;;38.51;28.00
18858;BME280;9558;50.178;8.370;2023-06-24T09:16:12;99161.41;;;38.20;27.22
18858;BME280;9558;50.178;8.370;2023-06-24T09:18:59;99155.91;;;37.83;28.84
18858;BME280;9558;50.178;8.370;2023-06-24T09:21:48;99149.69;;;37.49;28.66
18858;BME280;9558;50.178;8.370;2023-06-24T09:24:35;99144.69;;;37.17;29.88
18858;BME280;9558;50.178;8.370;2023-06-24T09:27:22;99144.78;;;36.79;29.23
18858;BME280;9558;50.178;8.370;2023-06-24T09:30:19;99148.47;;;36.18;29.77
18858;BME280;9558;50.178;8.370;2023-06-24T09:33:10;99144.75;;;35.67;30.36
18858;BME280;9558;50.178;8.370;2023-06-24T09:35:57;99130.47;;;34.87;30.11
18858;BME280;9558;50.178;8.370;2023-06-24T09:38:45;99134.41;;;34.41;31.77
18858;BME280;9558;50.178;8.370;2023-06-24T09:41:34;99131.56;;;33.83;32.34
18858;BME280;9558;50.178;8.370;2023-06-24T09:44:20;99121.78;;;33.42;32.93
18858;BME280;9558;50.178;8.370;2023-06-24T09:47:07;99122.88;;;32.90;33.22
18858;BME280;9558;50.178;8.370;2023-06-24T09:49:54;99110.38;;;32.44;34.10
18858;BME280;9558;50.178;8.370;2023-06-24T09:52:42;99107.88;;;32.01;34.74
18858;BME280;9558;50.178;8.370;2023-06-24T09:55:31;99100.38;;;31.70;35.44
18858;BME280;9558;50.178;8.370;2023-06-24T09:58:18;99099.16;;;31.43;36.21
18858;BME280;9558;50.178;8.370;2023-06-24T10:01:06;99103.78;;;31.18;37.13
18858;BME280;9558;50.178;8.370;2023-06-24T10:03:53;99101.06;;;30.99;37.62
18858;BME280;9558;50.178;8.370;2023-06-24T10:06:40;99100.63;;;30.92;37.60
18858;BME280;9558;50.178;8.370;2023-06-24T10:09:27;99104.25;;;30.82;37.88
18858;BME280;9558;50.178;8.370;2023-06-24T10:12:15;99092.25;;;30.56;37.51
18858;BME280;9558;50.178;8.370;2023-06-24T10:15:03;99096.13;;;30.39;38.36
18858;BME280;9558;50.178;8.370;2023-06-24T10:17:50;99082.44;;;30.22;38.08
18858;BME280;9558;50.178;8.370;2023-06-24T10:20:37;99079.59;;;30.13;38.37
18858;BME280;9558;50.178;8.370;2023-06-24T10:23:30;99070.59;;;30.04;38.58
18858;BME280;9558;50.178;8.370;2023-06-24T10:26:22;99070.69;;;29.93;39.30
18858;BME280;9558;50.178;8.370;2023-06-24T10:29:11;99070.50;;;29.85;39.91
18858;BME280;9558;50.178;8.370;2023-06-24T10:32:04;99058.97;;;29.60;40.19
18858;BME280;9558;50.178;8.370;2023-06-24T10:34:54;99070.22;;;29.52;39.46
18858;BME280;9558;50.178;8.370;2023-06-24T10:37:54;99067.69;;;29.31;39.24
18858;BME280;9558;50.178;8.370;2023-06-24T10:40:42;99053.41;;;29.06;39.82
18858;BME280;9558;50.178;8.370;2023-06-24T10:43:29;99065.25;;;28.90;40.21
18858;BME280;9558;50.178;8.370;2023-06-24T10:46:17;99052.28;;;28.68;40.69
18858;BME280;9558;50.178;8.370;2023-06-24T10:49:05;99046.41;;;28.60;41.69
18858;BME280;9558;50.178;8.370;2023-06-24T10:51:52;99043.50;;;28.62;41.76
18858;BME280;9558;50.178;8.370;2023-06-24T10:54:40;99042.72;;;28.61;40.71
18858;BME280;9558;50.178;8.370;2023-06-24T10:57:27;99038.47;;;28.55;41.44
18858;BME280;9558;50.178;8.370;2023-06-24T11:00:15;99033.38;;;28.59;43.00
18858;BME280;9558;50.178;8.370;2023-06-24T11:03:09;99034.97;;;28.70;42.70
18858;BME280;9558;50.178;8.370;2023-06-24T11:05:56;99029.56;;;28.86;42.81
18858;BME280;9558;50.178;8.370;2023-06-24T11:08:43;99030.28;;;28.96;42.29
18858;BME280;9558;50.178;8.370;2023-06-24T11:11:30;99027.25;;;29.13;42.70
18858;BME280;9558;50.178;8.370;2023-06-24T11:14:17;99032.47;;;29.34;42.14
18858;BME280;9558;50.178;8.370;2023-06-24T11:17:04;99023.56;;;29.49;42.16
18858;BME280;9558;50.178;8.370;2023-06-24T11:19:53;99014.50;;;29.50;40.25
18858;BME280;9558;50.178;8.370;2023-06-24T11:22:40;99022.84;;;29.38;40.20
18858;BME280;9558;50.178;8.370;2023-06-24T11:25:27;99016.50;;;29.29;40.23
18858;BME280;9558;50.178;8.370;2023-06-24T11:28:16;99010.44;;;29.18;40.25
18858;BME280;9558;50.178;8.370;2023-06-24T11:31:06;99009.97;;;29.11;40.43
18858;BME280;9558;50.178;8.370;2023-06-24T11:33:53;99002.22;;;29.09;40.75
18858;BME280;9558;50.178;8.370;2023-06-24T11:36:41;99005.44;;;29.06;40.87
18858;BME280;9558;50.178;8.370;2023-06-24T11:39:28;99001.16;;;29.10;40.50
18858;BME280;9558;50.178;8.370;2023-06-24T11:42:16;98999.03;;;29.12;40.50
18858;BME280;9558;50.178;8.370;2023-06-24T11:45:04;98991.47;;;29.25;40.73
18858;BME280;9558;50.178;8.370;2023-06-24T11:47:51;98991.94;;;29.37;40.80
18858;BME280;9558;50.178;8.370;2023-06-24T11:50:38;98995.78;;;29.55;40.88
18858;BME280;9558;50.178;8.370;2023-06-24T11:53:41;98996.88;;;29.84;40.12
18858;BME280;9558;50.178;8.370;2023-06-24T11:56:35;98993.13;;;30.09;38.96
18858;BME280;9558;50.178;8.370;2023-06-24T11:59:23;98990.88;;;30.21;39.25
18858;BME280;9558;50.178;8.370;2023-06-24T12:02:13;98982.44;;;30.33;38.51
18858;BME280;9558;50.178;8.370;2023-06-24T12:05:02;98980.19;;;30.45;38.88
18858;BME280;9558;50.178;8.370;2023-06-24T12:07:48;98976.31;;;30.57;38.22
18858;BME280;9558;50.178;8.370;2023-06-24T12:10:37;98979.34;;;30.69;38.88
18858;BME280;9558;50.178;8.370;2023-06-24T12:13:24;98972.63;;;30.72;38.34
18858;BME280;9558;50.178;8.370;2023-06-24T12:16:11;98970.44;;;30.74;38.78
18858;BME280;9558;50.178;8.370;2023-06-24T12:18:58;98974.66;;;30.80;38.73
18858;BME280;9558;50.178;8.370;2023-06-24T12:21:44;98969.94;;;30.91;39.34
18858;BME280;9558;50.178;8.370;2023-06-24T12:24:31;98974.50;;;30.90;38.18
18858;BME280;9558;50.178;8.370;2023-06-24T12:27:20;98964.22;;;30.97;38.55
18858;BME280;9558;50.178;8.370;2023-06-24T12:30:08;98964.50;;;31.01;36.82
18858;BME280;9558;50.178;8.370;2023-06-24T12:32:55;98964.16;;;30.83;37.17
18858;BME280;9558;50.178;8.370;2023-06-24T12:35:42;98970.31;;;30.84;37.49
18858;BME280;9558;50.178;8.370;2023-06-24T12:38:28;98960.19;;;30.81;37.79
18858;BME280;9558;50.178;8.370;2023-06-24T12:41:15;98960.47;;;30.79;38.11
18858;BME280;9558;50.178;8.370;2023-06-24T12:44:03;98947.13;;;30.79;38.37
18858;BME280;9558;50.178;8.370;2023-06-24T12:46:50;98948.06;;;30.89;38.33
18858;BME280;9558;50.178;8.370;2023-06-24T12:49:37;98947.78;;;30.90;37.44
18858;BME280;9558;50.178;8.370;2023-06-24T12:52:23;98945.75;;;30.82;35.92
18858;BME280;9558;50.178;8.370;2023-06-24T12:55:10;98940.91;;;30.65;35.88
18858;BME280;9558;50.178;8.370;2023-06-24T12:57:57;98940.00;;;30.56;36.96
18858;BME280;9558;50.178;8.370;2023-06-24T13:00:47;98937.19;;;30.42;37.56
18858;BME280;9558;50.178;8.370;2023-06-24T13:03:36;98937.03;;;30.14;37.81
18858;BME280;9558;50.178;8.370;2023-06-24T13:06:24;98933.63;;;29.84;39.11
18858;BME280;9558;50.178;8.370;2023-06-24T13:09:11;98932.56;;;29.56;39.89
18858;BME280;9558;50.178;8.370;2023-06-24T13:11:57;98943.97;;;29.32;40.05
18858;BME280;9558;50.178;8.370;2023-06-24T13:14:44;98938.31;;;29.04;40.35
18858;BME280;9558;50.178;8.370;2023-06-24T13:17:32;98936.97;;;28.62;40.62
18858;BME280;9558;50.178;8.370;2023-06-24T13:20:19;98931.25;;;28.29;41.37
18858;BME280;9558;50.178;8.370;2023-06-24T13:23:06;98939.38;;;27.98;41.99
18858;BME280;9558;50.178;8.370;2023-06-24T13:25:53;98930.88;;;27.75;42.55
18858;BME280;9558;50.178;8.370;2023-06-24T13:28:40;98929.59;;;27.52;42.81
18858;BME280;9558;50.178;8.370;2023-06-24T13:31:27;98925.06;;;27.27;43.77
18858;BME280;9558;50.178;8.370;2023-06-24T13:34:16;98927.22;;;27.10;44.23
18858;BME280;9558;50.178;8.370;2023-06-24T13:37:03;98922.94;;;26.93;44.43
18858;BME280;9558;50.178;8.370;2023-06-24T13:39:50;98925.03;;;26.76;45.24
18858;BME280;9558;50.178;8.370;2023-06-24T13:42:37;98923.94;;;26.61;45.78
18858;BME280;9558;50.178;8.370;2023-06-24T13:45:23;98933.72;;;26.50;46.10
18858;BME280;9558;50.178;8.370;2023-06-24T13:48:10;98920.94;;;26.42;46.32
18858;BME280;9558;50.178;8.370;2023-06-24T13:50:59;98930.75;;;26.36;46.11
18858;BME280;9558;50.178;8.370;2023-06-24T13:53:48;98919.03;;;26.27;46.31
18858;BME280;9558;50.178;8.370;2023-06-24T13:56:36;98923.28;;;26.23;46.11
18858;BME280;9558;50.178;8.370;2023-06-24T13:59:23;98922.19;;;26.19;46.98
18858;BME280;9558;50.178;8.370;2023-06-24T14:02:09;98912.66;;;26.23;47.06
18858;BME280;9558;50.178;8.370;2023-06-24T14:04:57;98915.59;;;26.32;46.91
18858;BME280;9558;50.178;8.370;2023-06-24T14:07:45;98907.13;;;26.40;46.84
18858;BME280;9558;50.178;8.370;2023-06-24T14:10:31;98901.84;;;26.50;47.66
18858;BME280;9558;50.178;8.370;2023-06-24T14:13:18;98894.25;;;26.69;47.44
18858;BME280;9558;50.178;8.370;2023-06-24T14:16:05;98899.56;;;26.90;46.69
18858;BME280;9558;50.178;8.370;2023-06-24T14:18:52;98890.53;;;27.17;46.76
18858;BME280;9558;50.178;8.370;2023-06-24T14:21:39;98895.03;;;27.42;44.16
18858;BME280;9558;50.178;8.370;2023-06-24T14:24:27;98900.06;;;27.64;44.33
18858;BME280;9558;50.178;8.370;2023-06-24T14:27:14;98895.75;;;27.84;43.94
18858;BME280;9558;50.178;8.370;2023-06-24T14:30:00;98892.53;;;28.02;43.42
18858;BME280;9558;50.178;8.370;2023-06-24T14:32:48;98886.34;;;28.17;42.70
18858;BME280;9558;50.178;8.370;2023-06-24T14:35:34;98883.63;;;28.27;41.66
18858;BME280;9558;50.178;8.370;2023-06-24T14:38:21;98881.50;;;28.30;41.46
18858;BME280;9558;50.178;8.370;2023-06-24T14:41:09;98875.91;;;28.26;41.52
18858;BME280;9558;50.178;8.370;2023-06-24T14:43:56;98872.47;;;28.20;41.69
18858;BME280;9558;50.178;8.370;2023-06-24T14:46:43;98866.94;;;28.12;40.30
18858;BME280;9558;50.178;8.370;2023-06-24T14:49:30;98868.00;;;28.10;41.68
18858;BME280;9558;50.178;8.370;2023-06-24T14:52:17;98866.44;;;28.09;41.27
18858;BME280;9558;50.178;8.370;2023-06-24T14:55:04;98865.38;;;28.05;41.00
18858;BME280;9558;50.178;8.370;2023-06-24T14:57:52;98867.25;;;28.00;41.49